Time;durP1;ratioP1;P1;durP2;ratioP2;P2;SDS_P1;SDS_P2;PMS_P1;PMS_P2;Temp;Humidity;BMP_temperature;BMP_pressure;BME280_temperature;BME280_humidity;BME280_pressure;Samples;Min_cycle;Max_cycle;Signal;HPM_P1;HPM_P2
2022/05/20 00:00:19;;;;;;;2.63;0.53;;;18.10;97.30;;;;;;5013612;28;20209;-92
2022/05/20 00:02:54;;;;;;;1.67;0.90;;;17.90;96.90;;;;;;5010903;28;20229;-93
2022/05/20 00:05:30;;;;;;;1.57;0.70;;;18.00;97.00;;;;;;5008347;28;20214;-92
2022/05/20 00:08:12;;;;;;;2.10;0.60;;;18.00;96.30;;;;;;5009894;28;20229;-92
2022/05/20 00:10:44;;;;;;;1.57;0.57;;;17.70;96.70;;;;;;5003697;28;20277;-92
2022/05/20 00:13:16;;;;;;;1.43;0.83;;;17.40;96.00;;;;;;5000666;28;20210;-94
2022/05/20 00:18:37;;;;;;;2.60;0.80;;;17.10;96.60;;;;;;5013255;28;20218;-92
2022/05/20 00:21:09;;;;;;;1.40;0.60;;;17.20;96.70;;;;;;5001811;28;20281;-92
2022/05/20 00:23:42;;;;;;;0.97;0.50;;;16.90;96.80;;;;;;5001038;28;20273;-92
2022/05/20 00:26:14;;;;;;;2.17;0.63;;;17.00;97.70;;;;;;5002644;28;20214;-92
2022/05/20 00:28:48;;;;;;;0.73;0.60;;;16.90;98.60;;;;;;5001430;28;20214;-92
2022/05/20 00:31:21;;;;;;;2.43;0.93;;;16.70;98.10;;;;;;5003625;28;20261;-92
2022/05/20 00:33:55;;;;;;;0.90;0.60;;;16.70;99.00;;;;;;5005815;28;20230;-92
2022/05/20 00:39:27;;;;;;;1.47;0.70;;;16.40;98.70;;;;;;5009854;28;20714;-92
2022/05/20 00:42:00;;;;;;;1.63;0.83;;;16.60;99.00;;;;;;5006329;28;20206;-93
2022/05/20 00:44:32;;;;;;;1.97;0.80;;;16.50;99.90;;;;;;5006900;28;20245;-93
2022/05/20 00:52:29;;;;;;;1.70;0.70;;;16.20;99.90;;;;;;5010698;28;20320;-93
2022/05/20 00:58:24;;;;;;;1.87;0.70;;;16.30;99.90;;;;;;5015276;28;20237;-91
2022/05/20 01:03:57;;;;;;;1.10;0.60;;;16.80;99.80;;;;;;4989507;28;20219;-88
2022/05/20 01:06:29;;;;;;;1.53;0.70;;;17.30;99.40;;;;;;4988173;28;20206;-92
2022/05/20 01:09:04;;;;;;;1.50;0.80;;;17.70;99.40;;;;;;4992809;28;20203;-92
2022/05/20 01:11:41;;;;;;;1.00;0.67;;;18.30;98.80;;;;;;4984812;28;20258;-92
2022/05/20 01:14:20;;;;;;;1.50;0.80;;;18.50;98.80;;;;;;4988249;28;20191;-92
2022/05/20 01:16:51;;;;;;;3.10;0.80;;;18.80;98.80;;;;;;4986981;28;20210;-92
2022/05/20 01:19:39;;;;;;;2.00;1.07;;;19.00;98.80;;;;;;4980579;28;20210;-91
2022/05/20 01:22:13;;;;;;;4.13;1.50;;;19.10;99.10;;;;;;4985338;28;20237;-92
2022/05/20 01:24:47;;;;;;;3.93;1.03;;;19.10;97.40;;;;;;4985918;28;20214;-92
2022/05/20 01:27:20;;;;;;;3.23;1.00;;;19.20;97.80;;;;;;4986564;28;20207;-92
2022/05/20 01:29:51;;;;;;;2.37;1.10;;;19.60;97.30;;;;;;4986058;28;20221;-91
2022/05/20 01:32:22;;;;;;;2.13;1.00;;;19.70;96.80;;;;;;4995993;28;20242;-92
2022/05/20 01:34:54;;;;;;;2.57;1.23;;;19.60;97.50;;;;;;5003122;28;20214;-93
2022/05/20 01:37:25;;;;;;;2.60;0.93;;;19.90;97.20;;;;;;5002621;28;20269;-92
2022/05/20 01:40:01;;;;;;;3.83;0.97;;;20.00;96.00;;;;;;5001437;28;20664;-93
2022/05/20 01:42:37;;;;;;;1.80;0.90;;;19.60;96.80;;;;;;5000124;28;20615;-93
2022/05/20 01:45:14;;;;;;;2.63;1.10;;;19.50;97.00;;;;;;4999266;28;20217;-93
2022/05/20 01:47:51;;;;;;;6.83;1.30;;;19.10;96.70;;;;;;4999078;28;20703;-92
2022/05/20 01:50:27;;;;;;;1.57;0.70;;;18.70;97.00;;;;;;4999827;28;20269;-92
2022/05/20 01:53:04;;;;;;;2.27;1.00;;;17.80;98.50;;;;;;5003169;28;20264;-92
2022/05/20 01:55:43;;;;;;;2.73;0.90;;;16.70;99.30;;;;;;4999800;28;20248;-92
2022/05/20 01:58:20;;;;;;;2.43;1.00;;;16.20;99.90;;;;;;5004196;28;20237;-92
2022/05/20 02:00:55;;;;;;;3.17;0.90;;;15.80;99.80;;;;;;5013274;28;20661;-93
2022/05/20 02:03:32;;;;;;;2.77;1.10;;;15.70;99.70;;;;;;5016607;28;20205;-93
2022/05/20 02:08:41;;;;;;;1.80;0.70;;;14.80;99.90;;;;;;5001771;28;20222;-92
2022/05/20 02:11:21;;;;;;;2.30;0.77;;;14.70;99.90;;;;;;5001613;28;20221;-93
2022/05/20 02:13:56;;;;;;;4.83;1.00;;;14.40;99.90;;;;;;5003215;28;20212;-92
2022/05/20 02:16:33;;;;;;;1.37;0.60;;;14.30;99.90;;;;;;5000784;28;20210;-92
2022/05/20 02:19:12;;;;;;;2.73;1.00;;;14.10;99.90;;;;;;5359622;23;20309;-90
2022/05/20 02:21:49;;;;;;;2.73;0.90;;;13.80;99.90;;;;;;5011011;28;20202;-90
2022/05/20 02:24:25;;;;;;;2.33;0.70;;;13.50;99.90;;;;;;5012143;28;20245;-91
2022/05/20 02:27:06;;;;;;;3.20;0.97;;;13.40;99.90;;;;;;5012353;28;20208;-91
2022/05/20 02:29:42;;;;;;;3.77;1.30;;;13.20;99.90;;;;;;5011195;28;20198;-92
2022/05/20 02:32:22;;;;;;;1.90;0.80;;;13.10;99.90;;;;;;5010212;28;20240;-91
2022/05/20 02:35:00;;;;;;;1.50;1.00;;;13.00;99.90;;;;;;5011417;28;20220;-91
2022/05/20 02:37:40;;;;;;;2.73;1.33;;;13.00;99.90;;;;;;5013462;28;20198;-91
2022/05/20 02:40:18;;;;;;;5.33;1.80;;;12.90;99.90;;;;;;5013446;28;20202;-90
2022/05/20 02:42:59;;;;;;;3.90;1.10;;;12.80;99.90;;;;;;5015205;28;20230;-91
2022/05/20 02:45:32;;;;;;;3.73;1.10;;;12.70;99.90;;;;;;5014897;28;20214;-91
2022/05/20 02:48:08;;;;;;;3.03;1.10;;;12.70;99.90;;;;;;5013195;28;20207;-90
2022/05/20 02:50:41;;;;;;;4.07;1.30;;;12.60;99.90;;;;;;5016622;28;20202;-90
2022/05/20 02:53:13;;;;;;;3.37;1.00;;;12.50;99.90;;;;;;5019766;28;20222;-91
2022/05/20 02:55:44;;;;;;;2.67;1.10;;;12.40;99.90;;;;;;5020362;28;20198;-91
2022/05/20 03:04:22;;;;;;;3.77;1.10;;;12.20;99.90;;;;;;5019224;28;20738;-91
2022/05/20 03:06:54;;;;;;;4.37;1.20;;;12.10;99.90;;;;;;5017065;28;20245;-91
2022/05/20 03:09:29;;;;;;;3.20;0.90;;;12.00;99.90;;;;;;5012964;28;20503;-92
2022/05/20 03:12:04;;;;;;;3.67;1.30;;;12.00;99.90;;;;;;5007445;28;20241;-91
2022/05/20 03:14:40;;;;;;;4.93;1.30;;;12.00;99.90;;;;;;5010948;28;20258;-91
2022/05/20 03:17:16;;;;;;;4.73;1.83;;;11.90;99.90;;;;;;5011300;28;20206;-92
2022/05/20 03:19:47;;;;;;;3.97;1.00;;;11.80;99.90;;;;;;5006951;28;20703;-93
2022/05/20 03:22:18;;;;;;;4.00;1.83;;;11.90;99.90;;;;;;5006145;28;20236;-92
2022/05/20 03:24:51;;;;;;;5.03;1.70;;;11.80;99.90;;;;;;5005610;28;20235;-90
2022/05/20 03:27:23;;;;;;;7.27;1.70;;;11.80;99.90;;;;;;5012405;28;20237;-91
2022/05/20 03:29:57;;;;;;;6.37;2.00;;;11.70;99.90;;;;;;5008806;28;20274;-91
2022/05/20 03:32:28;;;;;;;5.80;1.30;;;11.70;99.90;;;;;;5009061;28;20242;-92
2022/05/20 03:34:59;;;;;;;3.73;1.27;;;11.60;99.90;;;;;;5015375;28;20546;-92
2022/05/20 03:37:31;;;;;;;3.77;1.10;;;11.50;99.90;;;;;;5011541;28;20213;-91
2022/05/20 03:40:04;;;;;;;5.23;1.30;;;11.40;99.90;;;;;;5005807;28;20237;-91
2022/05/20 03:42:38;;;;;;;6.03;1.27;;;11.40;99.90;;;;;;5009424;28;20238;-92
2022/05/20 03:45:13;;;;;;;2.27;1.20;;;11.30;99.90;;;;;;5006793;28;20292;-91
2022/05/20 03:47:45;;;;;;;5.40;1.17;;;11.30;99.90;;;;;;5002373;28;20261;-92
2022/05/20 03:50:14;;;;;;;4.07;1.07;;;11.20;99.90;;;;;;5001771;28;20660;-92
2022/05/20 03:52:46;;;;;;;3.07;1.07;;;11.20;99.90;;;;;;4995689;28;20241;-92
2022/05/20 03:55:18;;;;;;;5.23;1.30;;;11.10;99.90;;;;;;4983864;28;20261;-91
2022/05/20 03:57:51;;;;;;;4.13;1.70;;;11.10;99.90;;;;;;5016873;28;20210;-92
2022/05/20 04:05:49;;;;;;;3.07;1.30;;;11.00;99.90;;;;;;5033887;28;20228;-93
2022/05/20 04:08:23;;;;;;;3.27;1.30;;;10.80;99.90;;;;;;5033576;28;20213;-92
2022/05/20 04:10:54;;;;;;;3.87;1.40;;;10.80;99.90;;;;;;5034035;28;20206;-92
2022/05/20 04:32:05;;;;;;;4.30;1.23;;;10.20;99.90;;;;;;5021515;28;20679;-92
2022/05/20 04:34:36;;;;;;;4.27;1.40;;;10.20;99.90;;;;;;5020744;28;20217;-92
2022/05/20 04:37:07;;;;;;;2.80;1.23;;;10.20;99.90;;;;;;5020354;28;20251;-92
2022/05/20 04:39:39;;;;;;;3.20;1.30;;;10.10;99.90;;;;;;5021794;28;20220;-90
2022/05/20 04:47:56;;;;;;;7.33;1.73;;;10.00;99.90;;;;;;5001968;28;20214;-91
2022/05/20 04:50:30;;;;;;;8.43;1.47;;;9.90;99.90;;;;;;4999356;28;20206;-91
2022/05/20 04:53:07;;;;;;;5.37;1.93;;;9.90;99.90;;;;;;5006579;28;20313;-92
2022/05/20 04:55:37;;;;;;;4.30;1.40;;;9.90;99.90;;;;;;4999871;28;20213;-92
2022/05/20 04:58:08;;;;;;;3.90;1.50;;;9.80;99.90;;;;;;5001464;28;20217;-92
2022/05/20 05:00:44;;;;;;;2.93;1.37;;;9.70;99.90;;;;;;5003195;28;20216;-91
2022/05/20 05:03:20;;;;;;;5.73;1.53;;;9.60;99.90;;;;;;5001940;28;20218;-91
2022/05/20 05:05:52;;;;;;;6.43;1.60;;;9.50;99.90;;;;;;5002195;28;20211;-92
2022/05/20 05:08:27;;;;;;;4.33;1.37;;;9.50;99.90;;;;;;5005855;28;20325;-92
2022/05/20 05:10:59;;;;;;;4.33;1.40;;;9.40;99.90;;;;;;5002540;28;20246;-92
2022/05/20 05:13:32;;;;;;;6.07;1.43;;;9.40;99.90;;;;;;4989290;28;20244;-92
2022/05/20 05:16:08;;;;;;;3.30;1.50;;;9.30;99.90;;;;;;5002778;28;20214;-92
2022/05/20 05:18:47;;;;;;;6.00;1.30;;;9.30;99.90;;;;;;5421245;23;20243;-91
2022/05/20 05:21:19;;;;;;;5.33;1.83;;;9.30;99.90;;;;;;4995554;28;20205;-91
2022/05/20 05:23:53;;;;;;;5.77;1.60;;;9.30;99.90;;;;;;5022242;28;20264;-91
2022/05/20 05:26:26;;;;;;;5.30;1.43;;;9.20;99.90;;;;;;5004764;28;20206;-91
2022/05/20 05:29:01;;;;;;;3.67;1.43;;;9.10;99.90;;;;;;5018529;28;20265;-92
2022/05/20 05:31:33;;;;;;;5.47;1.80;;;9.10;99.90;;;;;;5020547;28;20623;-91
2022/05/20 05:34:06;;;;;;;6.07;1.77;;;9.00;99.90;;;;;;5017653;28;20265;-91
2022/05/20 05:36:37;;;;;;;6.67;1.83;;;9.00;99.90;;;;;;5018530;28;20210;-91
2022/05/20 05:39:09;;;;;;;4.17;1.33;;;8.90;99.90;;;;;;5003242;28;20210;-91
2022/05/20 05:41:40;;;;;;;3.63;1.20;;;8.80;99.90;;;;;;4999102;28;20226;-91
2022/05/20 05:44:11;;;;;;;5.00;1.40;;;8.80;99.90;;;;;;4997636;28;20277;-91
2022/05/20 05:46:43;;;;;;;3.70;1.70;;;8.80;99.90;;;;;;4999647;28;20281;-91
2022/05/20 05:49:17;;;;;;;4.73;1.57;;;8.80;99.90;;;;;;4982424;28;20272;-90
2022/05/20 05:51:49;;;;;;;4.67;1.10;;;8.80;99.90;;;;;;5001321;28;20213;-91
2022/05/20 05:54:24;;;;;;;3.70;1.50;;;8.70;99.90;;;;;;5004331;28;20230;-91
2022/05/20 05:56:55;;;;;;;6.87;1.40;;;8.70;99.90;;;;;;5012170;28;20234;-91
2022/05/20 05:59:28;;;;;;;4.43;1.07;;;8.70;99.90;;;;;;5006861;28;20265;-92
2022/05/20 06:02:01;;;;;;;4.23;1.40;;;8.60;99.90;;;;;;4997803;28;20238;-91
2022/05/20 06:04:36;;;;;;;5.30;1.50;;;8.50;99.90;;;;;;4998175;28;20206;-90
2022/05/20 06:07:08;;;;;;;6.93;1.60;;;8.50;99.90;;;;;;5011998;28;20249;-91
2022/05/20 06:09:39;;;;;;;2.73;1.47;;;8.50;99.90;;;;;;4998307;28;20206;-91
2022/05/20 06:12:12;;;;;;;2.73;1.30;;;8.40;99.90;;;;;;5017370;28;20210;-91
2022/05/20 06:14:44;;;;;;;4.97;2.00;;;8.50;99.90;;;;;;5017501;28;20229;-91
2022/05/20 06:17:16;;;;;;;9.17;2.37;;;8.40;99.90;;;;;;5017064;28;20304;-91
2022/05/20 06:19:49;;;;;;;4.60;1.80;;;8.40;99.90;;;;;;5017846;28;20248;-91
2022/05/20 06:22:21;;;;;;;4.20;1.57;;;8.40;99.90;;;;;;5019203;28;20201;-92
2022/05/20 06:24:53;;;;;;;4.67;1.57;;;8.30;99.90;;;;;;5006162;28;20214;-91
2022/05/20 06:27:27;;;;;;;3.50;1.43;;;8.30;99.90;;;;;;5027210;28;20217;-91
2022/05/20 06:29:59;;;;;;;2.83;1.37;;;8.30;99.90;;;;;;5034936;28;20273;-92
2022/05/20 06:32:30;;;;;;;3.53;1.40;;;8.20;99.90;;;;;;5032472;28;20572;-90
2022/05/20 06:40:45;;;;;;;3.50;1.50;;;8.20;99.90;;;;;;5021547;28;20225;-90
2022/05/20 06:43:19;;;;;;;3.40;1.70;;;8.20;99.90;;;;;;5002653;28;20233;-91
2022/05/20 06:45:52;;;;;;;3.13;1.53;;;8.20;99.90;;;;;;5020395;28;20208;-91
2022/05/20 06:48:46;;;;;;;5.27;1.73;;;8.20;99.90;;;;;;5018475;28;20210;-91
2022/05/20 06:51:23;;;;;;;6.67;1.87;;;8.20;99.90;;;;;;5017414;28;20629;-91
2022/05/20 06:53:58;;;;;;;4.80;2.00;;;8.20;99.90;;;;;;5018696;28;20255;-91
2022/05/20 06:56:31;;;;;;;2.97;1.40;;;8.20;99.90;;;;;;5000790;28;20243;-91
2022/05/20 06:59:04;;;;;;;6.23;1.50;;;8.10;99.90;;;;;;5018032;28;20237;-91
2022/05/20 07:01:37;;;;;;;8.90;1.63;;;8.00;99.90;;;;;;5018133;28;20209;-90
2022/05/20 07:04:22;;;;;;;9.20;2.03;;;8.00;99.90;;;;;;5004300;28;20216;-90
2022/05/20 07:06:55;;;;;;;5.30;2.07;;;8.00;99.90;;;;;;5018118;28;20236;-91
2022/05/20 07:09:27;;;;;;;5.17;1.40;;;8.00;99.90;;;;;;5017339;28;20228;-92
2022/05/20 07:11:59;;;;;;;6.60;1.80;;;8.00;99.90;;;;;;5018325;28;20210;-91
2022/05/20 07:14:30;;;;;;;8.27;1.83;;;8.00;99.90;;;;;;5022401;28;20225;-91
2022/05/20 07:17:03;;;;;;;6.73;1.77;;;7.90;99.90;;;;;;5035142;28;20205;-91
2022/05/20 07:19:34;;;;;;;8.20;1.90;;;7.80;99.90;;;;;;5034762;28;20268;-92
2022/05/20 07:22:08;;;;;;;7.20;2.27;;;7.80;99.90;;;;;;5035142;28;20220;-91
2022/05/20 07:24:40;;;;;;;5.57;1.83;;;7.80;99.90;;;;;;5037925;28;20226;-91
2022/05/20 07:27:13;;;;;;;5.33;2.20;;;7.80;99.90;;;;;;5038925;28;20206;-91
2022/05/20 07:29:44;;;;;;;9.93;2.23;;;7.80;99.90;;;;;;5038120;28;20200;-91
2022/05/20 07:32:16;;;;;;;3.97;1.73;;;7.80;99.90;;;;;;5038367;28;20201;-92
2022/05/20 07:34:48;;;;;;;9.20;1.87;;;7.70;99.90;;;;;;5038534;28;20233;-92
2022/05/20 07:37:21;;;;;;;6.27;2.03;;;7.70;99.90;;;;;;5033251;28;20209;-91
2022/05/20 07:39:53;;;;;;;7.80;1.70;;;7.80;99.90;;;;;;5027828;28;20221;-91
2022/05/20 07:42:25;;;;;;;4.73;1.60;;;7.70;99.90;;;;;;5024521;28;20213;-91
2022/05/20 07:44:58;;;;;;;7.47;1.90;;;7.60;99.90;;;;;;5024227;28;20300;-91
2022/05/20 07:47:29;;;;;;;9.47;1.90;;;7.60;99.90;;;;;;5024260;28;20233;-91
2022/05/20 07:50:05;;;;;;;7.90;2.17;;;7.60;99.90;;;;;;5023631;28;20209;-91
2022/05/20 07:55:31;;;;;;;5.40;1.63;;;7.60;99.90;;;;;;5022577;28;20233;-90
2022/05/20 07:58:10;;;;;;;5.23;1.60;;;7.60;99.90;;;;;;5034003;28;20271;-90
2022/05/20 08:00:43;;;;;;;5.90;1.90;;;7.50;99.90;;;;;;5022934;28;20227;-91
2022/05/20 08:04:52;;;;;;;7.57;2.10;;;7.40;99.90;;;;;;5021935;28;20671;-91
2022/05/20 08:06:05;;;;;;;7.27;1.73;;;7.40;99.90;;;;;;5033547;28;20209;-92
2022/05/20 08:08:41;;;;;;;8.90;1.93;;;7.50;99.90;;;;;;5032861;28;20209;-90
2022/05/20 08:11:12;;;;;;;5.77;2.00;;;7.50;99.90;;;;;;5037576;28;20209;-91
2022/05/20 08:13:43;;;;;;;5.80;1.80;;;7.40;99.90;;;;;;5038849;28;20201;-91
2022/05/20 08:16:14;;;;;;;9.37;1.90;;;7.40;99.90;;;;;;5038593;28;20241;-91
2022/05/20 08:18:46;;;;;;;6.40;2.10;;;7.40;99.90;;;;;;5037486;28;20270;-90
2022/05/20 08:21:18;;;;;;;6.17;1.90;;;7.30;99.90;;;;;;5033068;28;20195;-91
2022/05/20 08:23:51;;;;;;;7.30;2.07;;;7.20;99.90;;;;;;5035581;28;20213;-91
2022/05/20 08:26:23;;;;;;;6.60;1.77;;;7.30;99.90;;;;;;5034574;28;20206;-91
2022/05/20 08:28:54;;;;;;;8.00;1.93;;;7.40;99.90;;;;;;5012341;28;20270;-91
2022/05/20 08:31:27;;;;;;;6.47;2.00;;;7.40;99.90;;;;;;5022440;28;20281;-91
2022/05/20 08:33:59;;;;;;;5.57;1.87;;;7.30;99.90;;;;;;5021933;28;20217;-91
2022/05/20 08:36:30;;;;;;;6.30;1.70;;;7.30;99.90;;;;;;5023192;28;20213;-89
2022/05/20 08:39:04;;;;;;;3.33;1.30;;;7.30;99.90;;;;;;5030409;28;20225;-91
2022/05/20 08:41:40;;;;;;;8.83;2.00;;;7.30;99.90;;;;;;5037507;28;20216;-91
2022/05/20 08:44:13;;;;;;;6.37;1.67;;;7.20;99.90;;;;;;5037622;28;20196;-89
2022/05/20 08:46:44;;;;;;;6.27;1.90;;;7.10;99.90;;;;;;5029051;28;20212;-90
2022/05/20 08:49:19;;;;;;;5.23;1.33;;;7.00;99.90;;;;;;5026359;28;20212;-91
2022/05/20 08:51:55;;;;;;;7.30;2.10;;;7.00;99.90;;;;;;5036910;28;20228;-91
2022/05/20 08:54:30;;;;;;;9.67;2.43;;;7.00;99.90;;;;;;5024735;28;20656;-91
2022/05/20 08:57:27;;;;;;;3.40;1.60;;;7.00;99.90;;;;;;5020924;28;20726;-91
2022/05/20 08:59:59;;;;;;;4.30;1.77;;;7.00;99.90;;;;;;5002987;28;20209;-91
2022/05/20 09:02:31;;;;;;;4.07;1.60;;;7.00;99.90;;;;;;5026770;28;20205;-91
2022/05/20 09:05:14;;;;;;;4.57;1.70;;;7.10;99.90;;;;;;5020046;28;20224;-92
2022/05/20 09:08:05;;;;;;;8.67;2.70;;;7.00;99.90;;;;;;5019512;28;20335;-91
2022/05/20 09:10:45;;;;;;;5.30;1.50;;;7.00;99.90;;;;;;5018177;28;20220;-91
2022/05/20 09:13:23;;;;;;;7.03;1.87;;;7.00;99.90;;;;;;5019386;28;20260;-91
2022/05/20 09:16:04;;;;;;;5.93;2.20;;;7.00;99.90;;;;;;5019150;28;20241;-91
2022/05/20 09:18:41;;;;;;;3.47;1.60;;;7.00;99.90;;;;;;5019007;28;20213;-92
2022/05/20 09:21:27;;;;;;;6.57;1.67;;;7.00;99.90;;;;;;5019002;28;20265;-92
2022/05/20 09:24:03;;;;;;;7.83;2.00;;;6.90;99.90;;;;;;5018814;28;20224;-92
2022/05/20 09:26:42;;;;;;;7.17;2.03;;;6.80;99.90;;;;;;5018318;28;20209;-92
2022/05/20 09:29:17;;;;;;;5.03;1.60;;;6.80;99.90;;;;;;5018719;28;20241;-92
2022/05/20 09:32:22;;;;;;;5.90;1.60;;;6.70;99.90;;;;;;5020285;28;20304;-91
2022/05/20 09:35:01;;;;;;;3.80;1.83;;;6.80;99.90;;;;;;5017927;28;20265;-92
2022/05/20 09:37:36;;;;;;;6.37;1.90;;;6.70;99.90;;;;;;5020565;28;20217;-91
2022/05/20 09:40:27;;;;;;;4.50;1.60;;;6.70;99.90;;;;;;5019634;28;20236;-90
2022/05/20 09:43:28;;;;;;;6.63;2.10;;;6.70;99.90;;;;;;5018966;28;20216;-92
2022/05/20 09:46:01;;;;;;;10.57;2.47;;;6.70;99.90;;;;;;5018514;28;20213;-92
2022/05/20 09:48:38;;;;;;;4.90;1.93;;;6.70;99.90;;;;;;5018410;28;20202;-91
2022/05/20 09:51:16;;;;;;;4.90;1.93;;;6.70;99.90;;;;;;5019309;28;20228;-90
2022/05/20 09:54:05;;;;;;;6.17;1.70;;;6.70;99.90;;;;;;5002335;28;20242;-91
2022/05/20 09:56:43;;;;;;;4.10;1.33;;;6.60;99.90;;;;;;5019321;28;20233;-91
2022/05/20 09:59:34;;;;;;;6.00;1.50;;;6.60;99.90;;;;;;5020844;28;20306;-91
2022/05/20 10:02:21;;;;;;;7.53;1.80;;;6.60;99.90;;;;;;5019936;28;20248;-91
2022/05/20 10:05:02;;;;;;;3.70;1.60;;;6.60;99.90;;;;;;5018458;28;20209;-91
2022/05/20 10:07:55;;;;;;;11.63;2.33;;;6.60;99.90;;;;;;5005702;28;20220;-91
2022/05/20 10:10:41;;;;;;;8.53;1.93;;;6.60;99.90;;;;;;4997030;28;20234;-91
2022/05/20 10:13:25;;;;;;;3.33;1.60;;;6.50;99.90;;;;;;4998400;28;20272;-92
2022/05/20 10:16:12;;;;;;;8.63;2.60;;;6.40;99.90;;;;;;4998109;28;20336;-91
2022/05/20 10:18:56;;;;;;;7.20;1.73;;;6.30;99.90;;;;;;4998104;28;20211;-92
2022/05/20 10:21:49;;;;;;;8.17;1.90;;;6.30;99.90;;;;;;4997259;28;20245;-92
2022/05/20 10:24:43;;;;;;;5.90;2.03;;;6.30;99.90;;;;;;4997631;28;20276;-91
2022/05/20 10:27:19;;;;;;;7.47;2.07;;;6.20;99.90;;;;;;4997842;28;20210;-91
2022/05/20 10:32:57;;;;;;;4.90;1.53;;;6.20;99.90;;;;;;4997975;28;20691;-92
2022/05/20 10:35:35;;;;;;;3.77;1.53;;;6.30;99.90;;;;;;4999094;28;20241;-91
2022/05/20 10:38:24;;;;;;;4.80;1.40;;;6.30;99.90;;;;;;4981293;28;20285;-91
2022/05/20 10:41:06;;;;;;;5.13;1.50;;;6.30;99.90;;;;;;4982370;28;20206;-92
2022/05/20 10:49:52;;;;;;;7.93;2.00;;;6.30;99.90;;;;;;5004116;28;20214;-92
2022/05/20 10:52:44;;;;;;;5.17;2.00;;;6.20;99.90;;;;;;5016501;28;20277;-91
2022/05/20 10:55:30;;;;;;;5.67;1.87;;;6.20;99.90;;;;;;5016365;28;20212;-90
2022/05/20 10:58:31;;;;;;;5.23;1.63;;;6.20;99.90;;;;;;5014809;28;20191;-91
2022/05/20 11:01:13;;;;;;;4.13;1.67;;;6.20;99.90;;;;;;5019696;28;20221;-90
2022/05/20 11:04:09;;;;;;;6.10;2.23;;;6.20;99.90;;;;;;5005031;28;20227;-92
2022/05/20 11:07:10;;;;;;;6.83;2.20;;;6.20;99.90;;;;;;5019767;28;20255;-91
2022/05/20 11:09:53;;;;;;;7.40;1.70;;;6.20;99.90;;;;;;5017417;28;20318;-90
2022/05/20 11:12:32;;;;;;;7.47;1.80;;;6.10;99.90;;;;;;5017150;28;20210;-89
2022/05/20 11:15:38;;;;;;;4.77;1.50;;;6.10;99.90;;;;;;5003972;28;20257;-90
2022/05/20 11:18:33;;;;;;;4.83;1.60;;;6.10;99.90;;;;;;5002538;28;20301;-90
2022/05/20 11:21:48;;;;;;;4.53;1.60;;;6.10;99.90;;;;;;5007167;28;20214;-89
2022/05/20 11:25:03;;;;;;;3.93;1.30;;;6.10;99.90;;;;;;5001443;28;20289;-91
2022/05/20 11:28:06;;;;;;;7.13;1.57;;;6.00;99.90;;;;;;4907010;29;20245;-92
2022/05/20 11:30:50;;;;;;;3.30;1.50;;;6.00;99.90;;;;;;4921965;29;20306;-91
2022/05/20 11:33:47;;;;;;;4.07;1.50;;;6.00;99.90;;;;;;4994665;28;20544;-91
2022/05/20 11:36:38;;;;;;;6.10;1.80;;;6.00;99.90;;;;;;5000728;28;20284;-91
2022/05/20 11:39:35;;;;;;;7.87;2.43;;;5.90;99.90;;;;;;4983119;28;20264;-91
2022/05/20 11:42:29;;;;;;;5.40;1.60;;;5.90;99.90;;;;;;5000505;28;20202;-91
2022/05/20 11:48:23;;;;;;;4.40;1.60;;;5.80;99.90;;;;;;5003484;28;20237;-90
2022/05/20 11:51:13;;;;;;;5.20;1.70;;;5.70;99.90;;;;;;5020785;28;20213;-91
2022/05/20 11:53:54;;;;;;;5.77;1.83;;;5.70;99.90;;;;;;5019799;28;20240;-91
2022/05/20 11:56:34;;;;;;;7.00;2.53;;;5.70;99.90;;;;;;5020179;28;20237;-91
2022/05/20 11:59:16;;;;;;;5.07;2.00;;;5.70;99.90;;;;;;5020079;28;20233;-91
2022/05/20 12:01:50;;;;;;;9.83;2.03;;;5.70;99.90;;;;;;5018652;28;20679;-90
2022/05/20 12:04:27;;;;;;;5.83;1.80;;;5.80;99.90;;;;;;5022235;28;20737;-90
2022/05/20 12:07:01;;;;;;;6.53;1.73;;;5.70;99.90;;;;;;5019654;28;20244;-90
2022/05/20 12:09:39;;;;;;;3.53;1.57;;;5.70;99.90;;;;;;5018314;28;20218;-91
2022/05/20 12:12:18;;;;;;;5.47;1.67;;;5.60;99.90;;;;;;5020175;28;20205;-91
2022/05/20 12:15:43;;;;;;;4.40;1.40;;;5.60;99.90;;;;;;5020165;28;20224;-90
2022/05/20 12:24:33;;;;;;;7.67;2.10;;;5.50;99.90;;;;;;5019970;28;20259;-90
2022/05/20 12:27:22;;;;;;;3.27;1.40;;;5.50;99.90;;;;;;5019318;28;20210;-90
2022/05/20 12:30:03;;;;;;;4.90;1.60;;;5.50;99.90;;;;;;5017549;28;20618;-90
2022/05/20 12:32:56;;;;;;;7.37;1.90;;;5.50;99.90;;;;;;5034025;23;20669;-90
2022/05/20 12:35:33;;;;;;;5.87;1.70;;;5.50;99.90;;;;;;4980322;28;20581;-91
2022/05/20 12:38:26;;;;;;;3.40;1.40;;;5.60;99.90;;;;;;5021184;23;20237;-92
2022/05/20 12:41:20;;;;;;;7.57;2.03;;;5.60;99.90;;;;;;4999207;28;20206;-91
2022/05/20 12:44:02;;;;;;;5.13;1.50;;;5.60;99.90;;;;;;4999422;28;20241;-92
2022/05/20 12:47:04;;;;;;;8.27;1.90;;;5.60;99.90;;;;;;4999423;28;20225;-91
2022/05/20 12:49:44;;;;;;;4.53;2.03;;;5.60;99.90;;;;;;4997738;28;20295;-91
2022/05/20 12:52:24;;;;;;;7.33;1.93;;;5.60;99.90;;;;;;4999479;28;20237;-91
2022/05/20 12:54:57;;;;;;;7.37;1.90;;;5.60;99.90;;;;;;4999156;28;20210;-91
2022/05/20 12:57:30;;;;;;;3.27;1.80;;;5.70;99.90;;;;;;5001106;28;20249;-92
2022/05/20 13:00:05;;;;;;;3.70;1.30;;;5.70;99.90;;;;;;5000032;28;20253;-91
2022/05/20 13:02:38;;;;;;;5.13;1.73;;;5.70;99.90;;;;;;4999754;28;20205;-90
2022/05/20 13:05:20;;;;;;;7.03;1.53;;;5.80;99.90;;;;;;5001935;28;20987;-92
2022/05/20 13:07:55;;;;;;;5.57;2.17;;;5.80;99.90;;;;;;5000067;28;20214;-92
2022/05/20 13:10:34;;;;;;;7.97;1.90;;;5.90;99.90;;;;;;5001341;28;20205;-92
2022/05/20 13:13:08;;;;;;;11.23;2.43;;;5.90;99.90;;;;;;5009680;28;20214;-91
2022/05/20 13:15:42;;;;;;;8.97;2.17;;;5.80;99.90;;;;;;5012663;28;20218;-90
2022/05/20 13:18:22;;;;;;;5.87;1.63;;;5.80;99.90;;;;;;5011004;28;20269;-91
2022/05/20 13:20:55;;;;;;;3.83;1.70;;;5.90;99.90;;;;;;5000506;28;20305;-91
2022/05/20 13:23:40;;;;;;;5.47;1.90;;;6.00;99.90;;;;;;5002276;28;20212;-91
2022/05/20 13:26:24;;;;;;;8.63;1.90;;;6.00;99.90;;;;;;5005248;28;20206;-90
2022/05/20 13:29:09;;;;;;;3.53;1.60;;;6.10;99.90;;;;;;5004997;28;20196;-90
2022/05/20 13:31:41;;;;;;;7.00;1.90;;;6.20;99.90;;;;;;5000815;28;20291;-90
2022/05/20 13:34:13;;;;;;;6.30;1.83;;;6.30;99.90;;;;;;5000776;28;20226;-91
2022/05/20 13:36:45;;;;;;;4.17;1.90;;;6.40;99.90;;;;;;5011995;28;20210;-91
2022/05/20 13:39:23;;;;;;;5.07;1.60;;;6.50;99.90;;;;;;5015705;28;20224;-91
2022/05/20 13:41:54;;;;;;;6.27;1.80;;;6.60;99.90;;;;;;5016236;28;20206;-91
2022/05/20 13:44:27;;;;;;;5.67;1.87;;;6.70;99.90;;;;;;5012501;28;20210;-91
2022/05/20 13:49:54;;;;;;;2.90;1.47;;;6.90;99.90;;;;;;5011002;28;20222;-91
2022/05/20 13:52:26;;;;;;;5.30;1.80;;;7.00;99.90;;;;;;4999764;28;20241;-90
2022/05/20 13:55:03;;;;;;;5.53;2.10;;;7.10;99.90;;;;;;5000221;28;20211;-90
2022/05/20 13:57:37;;;;;;;4.03;1.47;;;7.10;99.90;;;;;;5001676;28;20269;-90
2022/05/20 14:00:31;;;;;;;5.63;1.37;;;7.20;99.90;;;;;;5009609;28;20213;-90
2022/05/20 14:03:07;;;;;;;4.87;1.83;;;7.20;99.90;;;;;;5000493;28;20222;-90
2022/05/20 14:05:46;;;;;;;5.60;2.10;;;7.50;99.90;;;;;;5000231;28;20210;-91
2022/05/20 14:08:21;;;;;;;3.03;1.77;;;7.60;99.90;;;;;;4998075;28;20206;-91
2022/05/20 14:10:57;;;;;;;7.40;2.00;;;7.70;99.90;;;;;;4997158;28;20260;-90
2022/05/20 14:13:29;;;;;;;5.13;2.63;;;7.90;99.90;;;;;;4996325;28;20212;-90
2022/05/20 14:16:02;;;;;;;8.73;2.00;;;8.00;99.90;;;;;;4997819;28;20237;-91
2022/05/20 14:18:36;;;;;;;4.13;1.80;;;8.10;99.90;;;;;;4997769;28;20234;-90
2022/05/20 14:21:19;;;;;;;5.10;2.07;;;8.20;99.90;;;;;;4997261;28;20277;-91
2022/05/20 14:23:55;;;;;;;4.77;1.93;;;8.30;99.90;;;;;;4997772;28;20213;-90
2022/05/20 14:26:43;;;;;;;5.83;2.07;;;8.40;99.90;;;;;;4997829;28;20210;-91
2022/05/20 14:29:18;;;;;;;6.17;2.20;;;8.50;99.90;;;;;;4997533;28;20639;-90
2022/05/20 14:31:53;;;;;;;6.60;2.03;;;8.60;99.90;;;;;;4996851;28;20210;-90
2022/05/20 14:34:27;;;;;;;4.20;1.90;;;8.60;99.90;;;;;;5001937;28;20557;-90
2022/05/20 14:37:09;;;;;;;3.93;1.83;;;8.70;99.90;;;;;;5001604;28;20217;-91
2022/05/20 14:39:43;;;;;;;6.47;2.47;;;8.70;99.90;;;;;;4999905;28;20265;-91
2022/05/20 14:42:29;;;;;;;8.77;2.20;;;8.90;99.90;;;;;;5001678;28;20217;-91
2022/05/20 14:45:03;;;;;;;6.53;1.97;;;8.90;99.90;;;;;;5001725;28;20241;-91
2022/05/20 14:47:38;;;;;;;4.33;1.97;;;8.80;99.90;;;;;;5007906;28;20232;-91
2022/05/20 14:50:18;;;;;;;7.43;2.13;;;8.90;99.90;;;;;;5000229;28;20575;-91
2022/05/20 14:52:53;;;;;;;4.60;2.20;;;8.80;99.90;;;;;;5001702;28;20242;-91
2022/05/20 14:55:27;;;;;;;9.63;2.47;;;8.90;99.90;;;;;;5001335;28;20289;-90
2022/05/20 14:58:12;;;;;;;4.87;2.17;;;9.10;99.90;;;;;;5007080;28;20234;-91
2022/05/20 15:00:55;;;;;;;4.23;2.33;;;9.20;99.90;;;;;;5013013;28;20734;-91
2022/05/20 15:03:30;;;;;;;4.17;2.10;;;9.30;99.90;;;;;;5011747;28;20272;-91
2022/05/20 15:06:03;;;;;;;8.90;2.20;;;9.30;99.90;;;;;;5012623;28;20225;-90
2022/05/20 15:08:41;;;;;;;5.77;2.20;;;9.40;99.90;;;;;;5012997;28;20600;-90
2022/05/20 15:11:16;;;;;;;5.13;1.87;;;9.40;99.90;;;;;;5013600;28;20280;-92